KTYS/TYS METAR and TAF weather

Enter ICAO airport designator
Station Type Date Time Source
KTYS METAR 2020/07/04 00:53 UTC NOAA

KTYS 040053Z 02003KT 10SM CLR 29/18 A2992 RMK AO2 SLP120 T02890183


Station Type Date Time Source
KTYS Decoded METAR 2020/07/04 00:53 UTC NOAA

MCGHEE TYSON AIRPORT, TN, United States (KTYS) 35-49N 083-59W 302M
Jul 03, 2020 - 08:53 PM EDT / 2020.07.04 0053 UTC
Wind: from the NNE (020 degrees) at 3 MPH (3 KT):0
Visibility: 10 mile(s):0
Sky conditions: clear
Temperature: 84.0 F (28.9 C)
Dew Point: 64.9 F (18.3 C)
Relative Humidity: 52%
Pressure (altimeter): 29.92 in. Hg (1013 hPa)
ob: KTYS 040053Z 02003KT 10SM CLR 29/18 A2992 RMK AO2 SLP120 T02890183
cycle: 1

Station Type Date Time Source
KTYS TAF 2020/07/03 18:22 UTC NOAA

TAF KTYS 031720Z 0318/0418 VRB03KT P6SM FEW045 FEW250
FM040300 VRB03KT P6SM SCT200

Example: see airport list